Time;durP1;ratioP1;P1;durP2;ratioP2;P2;SDS_P1;SDS_P2;PMS_P1;PMS_P2;Temp;Humidity;BMP_temperature;BMP_pressure;BME280_temperature;BME280_humidity;BME280_pressure;Samples;Min_cycle;Max_cycle;Signal;HPM_P1;HPM_P2
2024/01/09 00:00:29;;;;;;;10.02;3.35;;;-2.40;99.90;;;;;;5040055;28;20474;-68
2024/01/09 00:02:54;;;;;;;8.63;2.80;;;-2.40;99.90;;;;;;5041564;28;20073;-68
2024/01/09 00:05:20;;;;;;;10.63;3.63;;;-2.40;99.90;;;;;;5040867;28;20060;-69
2024/01/09 00:07:45;;;;;;;8.68;3.22;;;-2.40;99.90;;;;;;5039892;28;20060;-67
2024/01/09 00:10:11;;;;;;;8.00;2.72;;;-2.50;99.90;;;;;;5041039;28;20088;-68
2024/01/09 00:12:37;;;;;;;13.02;3.65;;;-2.50;99.90;;;;;;5041018;28;20042;-69
2024/01/09 00:15:04;;;;;;;9.40;3.70;;;-2.50;99.90;;;;;;5041604;28;20040;-69
2024/01/09 00:17:30;;;;;;;10.13;3.20;;;-2.50;99.90;;;;;;5040230;28;20052;-68
2024/01/09 00:19:55;;;;;;;6.40;3.17;;;-2.50;99.90;;;;;;5041289;28;20746;-70
2024/01/09 00:22:21;;;;;;;8.18;3.05;;;-2.50;99.90;;;;;;5041485;28;20072;-70
2024/01/09 00:24:46;;;;;;;13.48;3.30;;;-2.60;99.90;;;;;;5041672;28;20060;-69
2024/01/09 00:27:12;;;;;;;10.02;2.75;;;-2.60;99.90;;;;;;5041045;28;20029;-71
2024/01/09 00:29:38;;;;;;;8.63;3.40;;;-2.70;99.90;;;;;;5040097;28;20083;-70
2024/01/09 00:32:04;;;;;;;9.63;3.22;;;-2.70;99.90;;;;;;5038986;28;20406;-71
2024/01/09 00:34:29;;;;;;;9.10;3.75;;;-2.70;99.90;;;;;;5041170;28;20022;-69
2024/01/09 00:36:57;;;;;;;8.65;3.58;;;-2.70;99.90;;;;;;5041301;28;20072;-68
2024/01/09 00:39:23;;;;;;;7.72;3.10;;;-2.70;99.90;;;;;;5039711;28;20075;-70
2024/01/09 00:41:48;;;;;;;12.63;3.15;;;-2.70;99.90;;;;;;5039781;28;20018;-68
2024/01/09 00:44:14;;;;;;;8.10;3.30;;;-2.70;99.90;;;;;;5041300;28;20037;-70
2024/01/09 00:46:40;;;;;;;9.40;2.92;;;-2.80;99.90;;;;;;5041523;28;20032;-67
2024/01/09 00:49:05;;;;;;;9.13;3.00;;;-2.80;99.90;;;;;;5041240;28;20469;-68
2024/01/09 00:51:31;;;;;;;10.10;3.20;;;-2.90;99.90;;;;;;5041378;28;20045;-67
2024/01/09 00:53:56;;;;;;;7.00;2.78;;;-2.80;99.90;;;;;;5041088;28;20018;-67
2024/01/09 00:56:22;;;;;;;11.95;3.13;;;-2.90;99.90;;;;;;5041041;28;20124;-68
2024/01/09 00:58:48;;;;;;;10.32;3.40;;;-2.90;99.90;;;;;;5042751;28;20115;-67
2024/01/09 01:01:13;;;;;;;7.45;3.08;;;-2.90;99.90;;;;;;5044654;28;20377;-68
2024/01/09 01:03:40;;;;;;;9.50;3.20;;;-2.90;99.90;;;;;;5044725;28;20060;-69
2024/01/09 01:06:05;;;;;;;11.80;3.25;;;-2.90;99.90;;;;;;5044648;28;20024;-69
2024/01/09 01:08:31;;;;;;;7.72;3.30;;;-2.90;99.90;;;;;;5044557;28;20436;-69
2024/01/09 01:10:56;;;;;;;6.50;3.28;;;-2.90;99.90;;;;;;5044644;28;20042;-69
2024/01/09 01:13:22;;;;;;;13.57;4.03;;;-2.90;99.90;;;;;;5044778;28;20076;-70
2024/01/09 01:15:48;;;;;;;7.93;3.13;;;-2.90;99.90;;;;;;5044240;28;20032;-67
2024/01/09 01:18:13;;;;;;;6.55;3.05;;;-3.00;99.90;;;;;;5044495;28;20104;-68
2024/01/09 01:20:42;;;;;;;11.77;3.50;;;-3.00;99.90;;;;;;5044776;28;20049;-68
2024/01/09 01:23:07;;;;;;;10.70;3.58;;;-3.00;99.90;;;;;;5043766;28;20044;-70
2024/01/09 01:25:33;;;;;;;7.72;3.15;;;-3.10;99.90;;;;;;5044349;28;20124;-67
2024/01/09 01:27:59;;;;;;;9.57;3.35;;;-3.10;99.90;;;;;;5044762;28;20075;-68
2024/01/09 01:30:24;;;;;;;8.45;3.13;;;-3.10;99.90;;;;;;5043705;28;20089;-69
2024/01/09 01:32:50;;;;;;;12.45;3.47;;;-3.10;99.90;;;;;;5044321;28;20026;-67
2024/01/09 01:35:15;;;;;;;11.75;3.72;;;-3.20;99.90;;;;;;5044266;28;20028;-68
2024/01/09 01:37:41;;;;;;;12.85;3.97;;;-3.20;99.90;;;;;;5043680;28;20017;-69
2024/01/09 01:40:07;;;;;;;7.75;3.35;;;-3.30;99.90;;;;;;5044075;28;20032;-71
2024/01/09 01:42:32;;;;;;;13.25;3.97;;;-3.30;99.90;;;;;;5042783;28;20033;-70
2024/01/09 01:44:58;;;;;;;10.85;3.53;;;-3.30;99.90;;;;;;5043749;28;20041;-67
2024/01/09 01:47:24;;;;;;;13.25;3.78;;;-3.30;99.90;;;;;;5043988;28;20442;-67
2024/01/09 01:49:50;;;;;;;10.70;3.58;;;-3.30;99.90;;;;;;5041966;28;20053;-69
2024/01/09 01:52:16;;;;;;;9.93;3.45;;;-3.30;99.90;;;;;;5043562;28;20037;-68
2024/01/09 01:54:42;;;;;;;12.43;3.65;;;-3.40;99.90;;;;;;5043936;28;20021;-68
2024/01/09 01:57:09;;;;;;;10.00;3.50;;;-3.40;99.90;;;;;;5042507;28;20047;-69
2024/01/09 01:59:39;;;;;;;11.73;3.83;;;-3.40;99.90;;;;;;5042198;28;20030;-70
2024/01/09 02:02:05;;;;;;;11.35;4.03;;;-3.50;99.90;;;;;;5042678;28;20084;-69
2024/01/09 02:04:32;;;;;;;9.10;3.40;;;-3.50;99.90;;;;;;5041539;28;20051;-69
2024/01/09 02:06:58;;;;;;;15.80;3.83;;;-3.50;99.90;;;;;;5043729;28;20112;-69
2024/01/09 02:09:24;;;;;;;9.77;3.78;;;-3.50;99.90;;;;;;5042796;28;20021;-70
2024/01/09 02:11:50;;;;;;;8.07;3.33;;;-3.50;99.90;;;;;;5042810;28;20033;-68
2024/01/09 02:14:15;;;;;;;9.48;3.17;;;-3.50;99.90;;;;;;5042803;28;20021;-71
2024/01/09 02:16:42;;;;;;;13.02;4.00;;;-3.60;99.90;;;;;;5043463;28;20060;-70
2024/01/09 02:19:07;;;;;;;10.38;4.38;;;-3.60;99.90;;;;;;5041942;28;20382;-68
2024/01/09 02:21:33;;;;;;;9.63;3.30;;;-3.60;99.90;;;;;;5043620;28;20028;-71
2024/01/09 02:23:59;;;;;;;8.95;3.83;;;-3.60;99.90;;;;;;5043564;28;20045;-69
2024/01/09 02:26:30;;;;;;;9.43;3.55;;;-3.70;99.90;;;;;;5043008;28;20033;-67
2024/01/09 02:29:01;;;;;;;8.80;3.78;;;-3.70;99.90;;;;;;5043039;28;20056;-68
2024/01/09 02:31:27;;;;;;;8.48;3.75;;;-3.70;99.90;;;;;;5041143;28;20482;-69
2024/01/09 02:33:52;;;;;;;8.60;3.58;;;-3.70;99.90;;;;;;5043114;28;20090;-67
2024/01/09 02:36:18;;;;;;;12.25;3.80;;;-3.70;99.90;;;;;;5041852;28;20027;-67
2024/01/09 02:38:44;;;;;;;12.50;4.60;;;-3.70;99.90;;;;;;5042594;28;20036;-68
2024/01/09 02:41:09;;;;;;;12.60;4.35;;;-3.80;99.90;;;;;;5043106;28;20017;-69
2024/01/09 02:43:35;;;;;;;9.23;3.97;;;-3.80;99.90;;;;;;5043038;28;20068;-68
2024/01/09 02:46:00;;;;;;;9.15;3.65;;;-3.80;99.90;;;;;;5042668;28;20068;-68
2024/01/09 02:48:26;;;;;;;12.35;4.20;;;-3.70;99.90;;;;;;5042803;28;20017;-68
2024/01/09 02:50:52;;;;;;;13.68;4.28;;;-3.70;99.90;;;;;;5042789;28;20044;-68
2024/01/09 02:53:17;;;;;;;11.98;4.72;;;-3.60;99.90;;;;;;5042366;28;20069;-67
2024/01/09 02:55:43;;;;;;;11.23;4.32;;;-3.60;99.90;;;;;;5042794;28;20021;-69
2024/01/09 02:58:09;;;;;;;10.55;4.10;;;-3.60;99.90;;;;;;5041311;28;20040;-69
2024/01/09 03:00:34;;;;;;;13.63;4.95;;;-3.70;99.90;;;;;;5040008;28;20045;-68
2024/01/09 03:03:00;;;;;;;11.00;4.70;;;-3.70;99.90;;;;;;5042488;28;20064;-69
2024/01/09 03:05:25;;;;;;;13.23;5.05;;;-3.70;99.90;;;;;;5041526;28;20121;-68
2024/01/09 03:07:51;;;;;;;12.63;4.97;;;-3.70;99.90;;;;;;5042220;28;20437;-69
2024/01/09 03:10:16;;;;;;;10.18;4.40;;;-3.80;99.90;;;;;;5042338;28;20096;-67
2024/01/09 03:12:42;;;;;;;13.98;4.60;;;-3.80;99.90;;;;;;5042628;28;20108;-71
2024/01/09 03:15:09;;;;;;;10.13;4.18;;;-3.70;99.90;;;;;;5041584;28;20063;-70
2024/01/09 03:17:35;;;;;;;9.73;4.35;;;-3.80;99.90;;;;;;5040733;28;20076;-71
2024/01/09 03:20:00;;;;;;;12.20;4.78;;;-3.80;99.90;;;;;;5042441;28;20851;-69
2024/01/09 03:22:26;;;;;;;12.88;4.45;;;-3.70;99.90;;;;;;5040360;28;20050;-67
2024/01/09 03:24:52;;;;;;;10.63;4.30;;;-3.80;99.90;;;;;;5042167;28;20028;-67
2024/01/09 03:27:17;;;;;;;14.43;4.78;;;-3.80;99.90;;;;;;5040672;28;20021;-68
2024/01/09 03:29:43;;;;;;;13.95;5.15;;;-3.80;99.90;;;;;;5040451;28;20022;-69
2024/01/09 03:32:08;;;;;;;13.43;4.95;;;-3.80;99.90;;;;;;5042308;28;20049;-70
2024/01/09 03:34:34;;;;;;;12.82;4.90;;;-3.80;99.90;;;;;;5040689;28;20112;-68
2024/01/09 03:36:59;;;;;;;14.48;5.32;;;-3.80;99.90;;;;;;5040594;28;20080;-69
2024/01/09 03:39:25;;;;;;;12.65;5.03;;;-3.80;99.90;;;;;;5042170;28;20085;-67
2024/01/09 03:41:52;;;;;;;9.57;4.35;;;-3.80;99.90;;;;;;5041725;28;20021;-68
2024/01/09 03:44:17;;;;;;;11.10;4.47;;;-3.90;99.90;;;;;;5040478;28;20034;-67
2024/01/09 03:46:43;;;;;;;10.75;4.40;;;-3.90;99.90;;;;;;5042098;28;20024;-67
2024/01/09 03:49:09;;;;;;;11.20;4.35;;;-3.90;99.90;;;;;;5041105;28;20025;-68
2024/01/09 03:51:35;;;;;;;12.98;4.65;;;-3.90;99.90;;;;;;5040463;28;20038;-69
2024/01/09 03:54:00;;;;;;;14.25;4.90;;;-3.80;99.90;;;;;;5040650;28;20385;-69
2024/01/09 03:56:26;;;;;;;11.85;4.78;;;-3.90;99.90;;;;;;5041417;28;20017;-69
2024/01/09 03:58:52;;;;;;;12.70;4.88;;;-3.90;99.90;;;;;;5041757;28;20093;-67
2024/01/09 04:01:18;;;;;;;15.18;4.75;;;-3.90;99.90;;;;;;5041591;28;20018;-71
2024/01/09 04:03:44;;;;;;;14.23;5.00;;;-3.90;99.90;;;;;;5040050;28;20486;-68
2024/01/09 04:06:09;;;;;;;11.90;4.78;;;-3.90;99.90;;;;;;5041747;28;20049;-69
2024/01/09 04:08:35;;;;;;;11.50;4.60;;;-3.90;99.90;;;;;;5057188;28;20026;-69
2024/01/09 04:11:03;;;;;;;12.27;4.63;;;-3.90;99.90;;;;;;5041541;28;20049;-67
2024/01/09 04:13:29;;;;;;;10.40;4.63;;;-3.90;99.90;;;;;;5040246;28;20471;-68
2024/01/09 04:15:55;;;;;;;11.48;4.75;;;-4.00;99.90;;;;;;5041386;28;20063;-68
2024/01/09 04:18:20;;;;;;;12.88;5.00;;;-4.00;99.90;;;;;;5041221;28;20017;-68
2024/01/09 04:20:46;;;;;;;13.07;5.30;;;-4.00;99.90;;;;;;5041682;28;20049;-70
2024/01/09 04:23:11;;;;;;;12.40;5.25;;;-4.00;99.90;;;;;;5040164;28;20028;-71
2024/01/09 04:25:37;;;;;;;12.00;4.85;;;-4.00;99.90;;;;;;5041359;28;20021;-69
2024/01/09 04:28:03;;;;;;;16.17;5.97;;;-4.00;99.90;;;;;;5041627;28;20080;-68
2024/01/09 04:30:28;;;;;;;17.48;6.47;;;-4.00;99.90;;;;;;5038310;28;20045;-68
2024/01/09 04:32:54;;;;;;;17.08;6.50;;;-4.00;99.90;;;;;;5039870;28;20030;-67
2024/01/09 04:35:20;;;;;;;18.25;7.50;;;-4.00;99.90;;;;;;5043550;28;20029;-70
2024/01/09 04:37:45;;;;;;;18.08;6.97;;;-4.00;99.90;;;;;;5044082;28;20021;-68
2024/01/09 04:40:11;;;;;;;14.85;7.10;;;-4.10;99.90;;;;;;5044183;28;20086;-69
2024/01/09 04:42:36;;;;;;;22.98;7.25;;;-4.10;99.90;;;;;;5045322;28;20069;-69
2024/01/09 04:45:02;;;;;;;16.98;7.00;;;-4.10;99.90;;;;;;5043786;28;20409;-68
2024/01/09 04:47:28;;;;;;;16.30;6.85;;;-4.10;99.90;;;;;;5043750;28;20018;-68
2024/01/09 04:49:54;;;;;;;24.05;8.10;;;-4.10;99.90;;;;;;5042258;28;20041;-70
2024/01/09 04:52:19;;;;;;;22.98;7.80;;;-4.10;99.90;;;;;;5044619;28;20083;-67
2024/01/09 04:54:45;;;;;;;20.27;7.38;;;-4.10;99.90;;;;;;5043804;28;20124;-68
2024/01/09 04:57:10;;;;;;;22.42;7.55;;;-4.20;99.90;;;;;;5044818;28;20022;-68
2024/01/09 04:59:36;;;;;;;19.02;7.35;;;-4.20;99.90;;;;;;5044588;28;20053;-68
2024/01/09 05:02:02;;;;;;;22.60;6.72;;;-4.20;99.90;;;;;;5040530;28;20026;-69
2024/01/09 05:04:31;;;;;;;17.83;6.57;;;-4.20;99.90;;;;;;5041415;28;20085;-70
2024/01/09 05:06:56;;;;;;;17.17;6.57;;;-4.20;99.90;;;;;;5043771;28;20112;-69
2024/01/09 05:09:23;;;;;;;16.95;6.45;;;-4.20;99.90;;;;;;5044383;28;20053;-69
2024/01/09 05:11:49;;;;;;;12.82;6.18;;;-4.20;99.90;;;;;;5043063;28;20064;-69
2024/01/09 05:14:14;;;;;;;18.02;6.80;;;-4.30;99.90;;;;;;5043012;28;20029;-69
2024/01/09 05:16:40;;;;;;;15.73;6.40;;;-4.30;99.90;;;;;;5041770;28;20077;-68
2024/01/09 05:19:05;;;;;;;19.88;6.95;;;-4.30;99.90;;;;;;5042733;28;20029;-69
2024/01/09 05:21:31;;;;;;;15.50;6.63;;;-4.30;99.90;;;;;;5038158;28;20040;-68
2024/01/09 05:23:57;;;;;;;17.05;6.47;;;-4.30;99.90;;;;;;5041117;28;20047;-67
2024/01/09 05:26:22;;;;;;;17.85;6.78;;;-4.30;99.90;;;;;;5042630;28;20063;-69
2024/01/09 05:28:48;;;;;;;16.20;7.15;;;-4.30;99.90;;;;;;5038989;28;20022;-69
2024/01/09 05:31:14;;;;;;;15.25;6.72;;;-4.30;99.90;;;;;;5042770;28;20501;-69
2024/01/09 05:33:39;;;;;;;18.90;7.05;;;-4.30;99.90;;;;;;5041703;28;20025;-70
2024/01/09 05:36:06;;;;;;;15.90;6.38;;;-4.40;99.90;;;;;;5042630;28;20116;-67
2024/01/09 05:38:32;;;;;;;16.35;7.30;;;-4.30;99.90;;;;;;5043769;28;20037;-68
2024/01/09 05:40:58;;;;;;;17.88;7.55;;;-4.40;99.90;;;;;;5043203;28;20033;-67
2024/01/09 05:43:23;;;;;;;18.77;6.93;;;-4.30;99.90;;;;;;5043743;28;20044;-69
2024/01/09 05:45:49;;;;;;;16.08;6.97;;;-4.30;99.90;;;;;;5042494;28;20120;-69
2024/01/09 05:48:15;;;;;;;17.15;7.22;;;-4.40;99.90;;;;;;5042826;28;20052;-70
2024/01/09 05:50:40;;;;;;;19.13;8.02;;;-4.40;99.90;;;;;;5043914;28;20045;-69
2024/01/09 05:53:07;;;;;;;17.30;7.63;;;-4.40;99.90;;;;;;5043101;28;20026;-68
2024/01/09 05:55:33;;;;;;;22.70;7.07;;;-4.40;99.90;;;;;;5043864;28;20045;-67
2024/01/09 05:57:58;;;;;;;21.38;7.50;;;-4.40;99.90;;;;;;5043633;28;20029;-69
2024/01/09 06:00:24;;;;;;;13.48;6.95;;;-4.40;99.90;;;;;;5043728;28;20823;-67
2024/01/09 06:02:51;;;;;;;23.20;8.25;;;-4.40;99.90;;;;;;5038103;28;20041;-69
2024/01/09 06:05:17;;;;;;;18.58;7.72;;;-4.40;99.90;;;;;;5041598;28;20052;-69
2024/01/09 06:07:43;;;;;;;28.38;8.63;;;-4.40;99.90;;;;;;5043540;28;20081;-69
2024/01/09 06:10:09;;;;;;;19.02;8.95;;;-4.40;99.90;;;;;;5041022;28;20179;-70
2024/01/09 06:12:34;;;;;;;16.30;8.00;;;-4.40;99.90;;;;;;5040661;28;20022;-69
2024/01/09 06:15:00;;;;;;;22.92;8.15;;;-4.40;99.90;;;;;;5043572;28;20075;-67
2024/01/09 06:17:26;;;;;;;26.77;8.63;;;-4.40;99.90;;;;;;5041197;28;20057;-69
2024/01/09 06:19:51;;;;;;;16.65;7.60;;;-4.40;99.90;;;;;;5041043;28;20036;-69
2024/01/09 06:22:17;;;;;;;17.70;8.65;;;-4.40;99.90;;;;;;5040467;28;20030;-67
2024/01/09 06:24:43;;;;;;;18.50;8.07;;;-4.40;99.90;;;;;;5043099;28;20025;-69
2024/01/09 06:27:08;;;;;;;19.90;8.98;;;-4.50;99.90;;;;;;5043428;28;20112;-70
2024/01/09 06:29:34;;;;;;;21.70;8.73;;;-4.50;99.90;;;;;;5043247;28;20017;-68
2024/01/09 06:31:59;;;;;;;21.63;9.63;;;-4.40;99.90;;;;;;5040870;28;20047;-68
2024/01/09 06:34:25;;;;;;;24.92;9.95;;;-4.40;99.90;;;;;;5043074;28;20030;-69
2024/01/09 06:36:50;;;;;;;21.30;8.90;;;-4.40;99.90;;;;;;5040931;28;20037;-68
2024/01/09 06:39:16;;;;;;;25.05;9.18;;;-4.40;99.90;;;;;;5040695;28;20079;-70
2024/01/09 06:41:43;;;;;;;21.63;8.93;;;-4.40;99.90;;;;;;5041072;28;20043;-69
2024/01/09 06:44:08;;;;;;;21.85;8.50;;;-4.40;99.90;;;;;;5038816;28;20021;-69
2024/01/09 06:46:34;;;;;;;24.63;8.32;;;-4.40;99.90;;;;;;5039034;28;20044;-71
2024/01/09 06:49:00;;;;;;;22.30;8.05;;;-4.40;99.90;;;;;;5036018;28;20044;-72
2024/01/09 06:51:25;;;;;;;21.45;8.50;;;-4.40;99.90;;;;;;5037770;28;20042;-67
2024/01/09 06:53:51;;;;;;;18.27;7.93;;;-4.40;99.90;;;;;;5038708;28;20025;-68
2024/01/09 06:56:17;;;;;;;20.20;8.02;;;-4.50;99.90;;;;;;5038512;28;20084;-68
2024/01/09 06:58:45;;;;;;;20.92;7.93;;;-4.50;99.90;;;;;;5037949;28;20036;-69
2024/01/09 07:01:11;;;;;;;20.45;8.13;;;-4.50;99.90;;;;;;5035906;28;20040;-67
2024/01/09 07:03:36;;;;;;;21.27;8.95;;;-4.50;99.90;;;;;;5036258;28;20042;-69
2024/01/09 07:06:04;;;;;;;20.60;8.45;;;-4.60;99.90;;;;;;5038909;28;20502;-67
2024/01/09 07:08:30;;;;;;;21.25;8.98;;;-4.60;99.90;;;;;;5037949;28;20553;-68
2024/01/09 07:10:56;;;;;;;23.73;9.50;;;-4.60;99.90;;;;;;5027755;28;20043;-70
2024/01/09 07:13:22;;;;;;;25.23;9.80;;;-4.60;99.90;;;;;;5038920;28;20021;-68
2024/01/09 07:15:48;;;;;;;24.50;9.88;;;-4.60;99.90;;;;;;5039692;28;20025;-67
2024/01/09 07:18:14;;;;;;;22.60;11.15;;;-4.60;99.90;;;;;;5040532;28;20044;-68
2024/01/09 07:20:39;;;;;;;27.13;10.43;;;-4.70;99.90;;;;;;5041060;28;20089;-69
2024/01/09 07:23:05;;;;;;;32.20;12.10;;;-4.70;99.90;;;;;;5041984;28;20037;-69
2024/01/09 07:25:30;;;;;;;27.60;11.63;;;-4.70;99.90;;;;;;5042213;28;20036;-69
2024/01/09 07:27:56;;;;;;;22.90;10.50;;;-4.70;99.90;;;;;;5041909;28;20030;-68
2024/01/09 07:30:22;;;;;;;28.73;11.93;;;-4.70;99.90;;;;;;5042033;28;20076;-68
2024/01/09 07:32:47;;;;;;;27.40;11.93;;;-4.70;99.90;;;;;;5041999;28;20043;-68
2024/01/09 07:35:13;;;;;;;27.83;12.43;;;-4.70;99.90;;;;;;5041190;28;20085;-68
2024/01/09 07:37:39;;;;;;;35.85;13.48;;;-4.70;99.90;;;;;;5039651;28;20025;-68
2024/01/09 07:40:05;;;;;;;30.65;13.30;;;-4.70;99.90;;;;;;5038709;28;20543;-68
2024/01/09 07:42:31;;;;;;;30.20;12.68;;;-4.70;99.90;;;;;;5032147;28;20036;-70
2024/01/09 07:44:57;;;;;;;31.23;13.48;;;-4.70;99.90;;;;;;5039444;28;20120;-69
2024/01/09 07:47:23;;;;;;;31.48;13.65;;;-4.70;99.90;;;;;;5039697;28;20017;-68
2024/01/09 07:49:49;;;;;;;31.90;14.43;;;-4.70;99.90;;;;;;5040261;28;20048;-67
2024/01/09 07:52:15;;;;;;;29.42;13.68;;;-4.70;99.90;;;;;;5040444;28;20032;-67
2024/01/09 07:54:43;;;;;;;32.47;14.40;;;-4.70;99.90;;;;;;5041683;28;20030;-68
2024/01/09 07:57:09;;;;;;;30.10;13.25;;;-4.70;99.90;;;;;;5039794;28;20014;-70
2024/01/09 07:59:34;;;;;;;30.40;13.13;;;-4.70;99.90;;;;;;5041871;28;20068;-69
2024/01/09 08:02:01;;;;;;;30.38;13.32;;;-4.60;99.90;;;;;;5041633;28;20048;-68
2024/01/09 08:04:27;;;;;;;28.65;12.52;;;-4.60;99.90;;;;;;5041188;28;20048;-69
2024/01/09 08:06:54;;;;;;;35.53;15.23;;;-4.60;99.90;;;;;;5041792;28;20037;-68
2024/01/09 08:09:19;;;;;;;27.50;11.98;;;-4.40;99.90;;;;;;5045372;28;20041;-67
2024/01/09 08:11:46;;;;;;;31.60;13.38;;;-4.20;99.90;;;;;;5045087;28;20037;-68
2024/01/09 08:14:12;;;;;;;282.50;41.53;;;-3.90;99.90;;;;;;5045288;28;20084;-69
2024/01/09 08:16:37;;;;;;;37.47;14.80;;;-3.50;99.90;;;;;;5044009;28;20031;-69
2024/01/09 08:19:04;;;;;;;28.65;13.50;;;-3.20;99.90;;;;;;5044300;28;20081;-68
2024/01/09 08:21:31;;;;;;;28.25;13.60;;;-3.00;99.90;;;;;;5045730;28;20048;-68
2024/01/09 08:23:57;;;;;;;26.00;12.75;;;-2.70;99.90;;;;;;5043748;28;20037;-69
2024/01/09 08:26:22;;;;;;;30.25;13.63;;;-2.40;99.90;;;;;;5045732;28;20025;-68
2024/01/09 08:28:48;;;;;;;30.58;14.23;;;-2.10;99.90;;;;;;5045544;28;20117;-68
2024/01/09 08:31:13;;;;;;;31.52;12.98;;;-1.80;99.90;;;;;;5043611;28;20041;-67
2024/01/09 08:33:39;;;;;;;25.17;12.50;;;-1.50;99.90;;;;;;5045749;28;20029;-70
2024/01/09 08:36:05;;;;;;;22.60;12.15;;;-1.20;99.90;;;;;;5045437;28;20041;-67
2024/01/09 08:38:30;;;;;;;25.17;11.57;;;-0.90;99.90;;;;;;5044748;28;20035;-68
2024/01/09 08:40:56;;;;;;;26.08;12.60;;;-0.60;99.90;;;;;;5045431;28;20017;-68
2024/01/09 08:43:22;;;;;;;25.45;12.50;;;-0.50;99.90;;;;;;5045160;28;20022;-69
2024/01/09 08:45:49;;;;;;;24.73;12.45;;;-0.30;99.90;;;;;;5043476;28;20030;-68
2024/01/09 08:48:15;;;;;;;23.40;11.93;;;-0.10;99.90;;;;;;5043252;28;20041;-66
2024/01/09 08:50:41;;;;;;;25.85;12.15;;;0.00;99.90;;;;;;5045101;28;20087;-68
2024/01/09 08:53:07;;;;;;;26.45;13.98;;;0.20;99.90;;;;;;5044802;28;20025;-67
2024/01/09 08:55:33;;;;;;;22.88;12.65;;;0.40;99.90;;;;;;5043864;28;20022;-67
2024/01/09 08:57:59;;;;;;;23.08;11.18;;;0.40;99.90;;;;;;5044825;28;20111;-67
2024/01/09 09:00:24;;;;;;;27.25;11.95;;;0.30;99.90;;;;;;5044311;28;20038;-69
2024/01/09 09:02:51;;;;;;;20.35;10.95;;;0.10;99.90;;;;;;5044567;28;20030;-68
2024/01/09 09:05:16;;;;;;;19.08;10.60;;;0.10;99.90;;;;;;5044202;28;20027;-69
2024/01/09 09:07:42;;;;;;;21.23;11.07;;;0.10;99.90;;;;;;5045032;28;20022;-67
2024/01/09 09:10:08;;;;;;;20.52;10.93;;;0.20;99.90;;;;;;5044722;28;20034;-68
2024/01/09 09:12:33;;;;;;;17.33;10.30;;;0.20;99.90;;;;;;5044564;28;20018;-68
2024/01/09 09:15:00;;;;;;;19.48;10.27;;;0.00;99.90;;;;;;5044646;28;20026;-68
2024/01/09 09:17:25;;;;;;;18.00;10.20;;;-0.20;99.90;;;;;;5044565;28;20032;-69
2024/01/09 09:19:51;;;;;;;17.40;9.75;;;-0.40;99.90;;;;;;5041979;28;20029;-65
2024/01/09 09:22:16;;;;;;;19.40;9.38;;;-0.60;99.90;;;;;;5044559;28;20033;-66
2024/01/09 09:24:42;;;;;;;18.60;9.05;;;-0.80;99.90;;;;;;5044724;28;20112;-68
2024/01/09 09:27:08;;;;;;;19.55;8.63;;;-0.90;99.90;;;;;;5043601;28;20034;-67
2024/01/09 09:29:33;;;;;;;19.05;9.02;;;-1.00;99.90;;;;;;5043166;28;20095;-68
2024/01/09 09:31:59;;;;;;;16.85;9.38;;;-1.10;99.90;;;;;;5044370;28;20056;-67
2024/01/09 09:34:25;;;;;;;18.60;8.07;;;-1.20;99.90;;;;;;5042534;28;20032;-68
2024/01/09 09:36:50;;;;;;;15.23;8.57;;;-1.10;99.90;;;;;;5044201;28;20018;-68
2024/01/09 09:39:16;;;;;;;17.80;8.23;;;-0.90;99.90;;;;;;5043757;28;20032;-66
2024/01/09 09:41:46;;;;;;;15.90;8.55;;;-0.50;99.90;;;;;;5042618;28;20044;-67
2024/01/09 09:44:14;;;;;;;15.93;7.80;;;-0.20;99.90;;;;;;5042718;28;20044;-68
2024/01/09 09:46:41;;;;;;;14.50;7.35;;;0.30;99.90;;;;;;5042407;28;20028;-67
2024/01/09 09:49:08;;;;;;;14.52;7.18;;;0.80;99.90;;;;;;5043933;28;20029;-66
2024/01/09 09:51:35;;;;;;;13.85;7.63;;;1.30;99.90;;;;;;5042739;28;20048;-66
2024/01/09 09:54:03;;;;;;;13.40;7.32;;;1.70;99.90;;;;;;5043661;28;20036;-66
2024/01/09 09:56:29;;;;;;;13.75;7.18;;;2.00;99.90;;;;;;5042968;28;20033;-67
2024/01/09 09:58:54;;;;;;;12.93;6.60;;;2.30;99.90;;;;;;5043363;28;20056;-70
2024/01/09 10:01:23;;;;;;;13.77;6.95;;;2.50;99.90;;;;;;5043423;28;20032;-67
2024/01/09 10:03:55;;;;;;;13.05;6.72;;;2.90;99.90;;;;;;5043453;28;20552;-66
2024/01/09 10:06:22;;;;;;;11.80;6.65;;;3.20;99.90;;;;;;5043550;28;20029;-67
2024/01/09 10:08:51;;;;;;;14.00;7.00;;;3.40;99.90;;;;;;5043525;28;20029;-67
2024/01/09 10:11:17;;;;;;;13.02;6.57;;;3.60;99.90;;;;;;5043284;28;20463;-66
2024/01/09 10:13:43;;;;;;;11.98;7.00;;;3.80;99.90;;;;;;5043477;28;20085;-66
2024/01/09 10:16:09;;;;;;;11.65;6.68;;;4.00;99.90;;;;;;5038853;28;20577;-66
2024/01/09 10:18:35;;;;;;;11.27;6.10;;;4.10;99.90;;;;;;5038341;28;20025;-67
2024/01/09 10:21:01;;;;;;;13.40;6.15;;;3.90;99.90;;;;;;5038734;28;20029;-70
2024/01/09 10:23:27;;;;;;;9.90;5.72;;;3.90;99.90;;;;;;5040343;28;20084;-68
2024/01/09 10:25:54;;;;;;;12.35;6.22;;;4.00;99.90;;;;;;5041577;28;20398;-67
2024/01/09 10:28:20;;;;;;;10.38;5.45;;;4.10;99.90;;;;;;5040110;28;20695;-66
2024/01/09 10:30:46;;;;;;;9.95;5.80;;;4.10;99.90;;;;;;5039170;28;20025;-68
2024/01/09 10:33:13;;;;;;;9.45;5.15;;;4.10;99.90;;;;;;5043024;28;20077;-69
2024/01/09 10:35:39;;;;;;;11.40;5.53;;;4.10;99.90;;;;;;5041864;28;20068;-67
2024/01/09 10:38:05;;;;;;;10.40;5.07;;;4.10;99.90;;;;;;5041442;28;20025;-68
2024/01/09 10:40:31;;;;;;;8.20;4.75;;;3.90;99.90;;;;;;5041662;28;20061;-67
2024/01/09 10:42:56;;;;;;;12.07;5.22;;;3.70;99.90;;;;;;5042912;28;20045;-68
2024/01/09 10:45:23;;;;;;;11.05;6.03;;;3.70;99.90;;;;;;5042828;28;20022;-67
2024/01/09 10:47:56;;;;;;;11.20;4.97;;;4.00;99.90;;;;;;5042819;28;20136;-68
2024/01/09 10:50:21;;;;;;;8.77;5.07;;;4.10;99.90;;;;;;5042523;28;20037;-66
2024/01/09 10:52:48;;;;;;;11.52;5.82;;;4.50;99.90;;;;;;5042676;28;20078;-68
2024/01/09 10:55:16;;;;;;;9.98;4.97;;;4.80;99.90;;;;;;5042511;28;20033;-66
2024/01/09 10:57:42;;;;;;;11.15;4.97;;;5.20;99.90;;;;;;5042224;28;20056;-67
2024/01/09 11:00:12;;;;;;;8.43;5.03;;;5.30;99.90;;;;;;5042589;28;20030;-66
2024/01/09 11:02:38;;;;;;;9.25;4.65;;;5.20;99.90;;;;;;5041039;28;20030;-68
2024/01/09 11:05:08;;;;;;;10.77;5.43;;;4.80;99.90;;;;;;5040503;28;20044;-68
2024/01/09 11:07:33;;;;;;;8.18;5.03;;;4.60;99.90;;;;;;5040069;28;20087;-66
2024/01/09 11:10:00;;;;;;;11.98;4.78;;;4.50;99.90;;;;;;5042120;28;20034;-68
2024/01/09 11:12:36;;;;;;;9.10;4.40;;;4.60;99.90;;;;;;5040324;28;20089;-66
2024/01/09 11:15:09;;;;;;;10.65;4.70;;;4.40;99.90;;;;;;5040748;28;20528;-68
2024/01/09 11:17:37;;;;;;;8.85;5.20;;;4.30;99.90;;;;;;5042399;28;20014;-69
2024/01/09 11:20:10;;;;;;;8.13;4.63;;;4.50;99.90;;;;;;5040641;28;20025;-67
2024/01/09 11:22:37;;;;;;;8.13;3.83;;;4.80;99.90;;;;;;5042130;28;20021;-69
2024/01/09 11:25:12;;;;;;;9.05;5.30;;;5.30;99.90;;;;;;5039543;28;20036;-68
2024/01/09 11:27:42;;;;;;;11.63;5.97;;;5.80;99.90;;;;;;5034187;28;20084;-66
2024/01/09 11:30:11;;;;;;;11.52;6.80;;;6.10;99.90;;;;;;5036291;28;20529;-67
2024/01/09 11:32:40;;;;;;;17.10;7.22;;;6.20;99.90;;;;;;5034458;28;20018;-68
2024/01/09 11:35:15;;;;;;;10.77;7.10;;;6.30;99.90;;;;;;5041579;28;20029;-69
2024/01/09 11:37:46;;;;;;;10.48;6.40;;;6.50;99.90;;;;;;5039915;28;20094;-68
2024/01/09 11:40:12;;;;;;;11.75;6.80;;;6.60;99.90;;;;;;5040125;28;20025;-67
2024/01/09 11:42:51;;;;;;;9.68;6.03;;;6.90;99.90;;;;;;5038391;28;20025;-66
2024/01/09 11:45:35;;;;;;;10.48;6.45;;;7.20;99.90;;;;;;5036552;28;20025;-67
2024/01/09 11:48:00;;;;;;;10.80;6.40;;;7.40;99.90;;;;;;5039562;28;20045;-67
2024/01/09 11:50:26;;;;;;;9.07;5.95;;;7.40;99.90;;;;;;5040475;28;20295;-67
2024/01/09 11:52:51;;;;;;;9.77;6.20;;;7.30;99.90;;;;;;5039440;28;20068;-66
2024/01/09 11:55:20;;;;;;;11.23;6.75;;;7.40;99.90;;;;;;5039017;28;20083;-68
2024/01/09 11:57:46;;;;;;;11.15;6.60;;;7.50;99.90;;;;;;5035068;28;20033;-67
2024/01/09 12:00:11;;;;;;;10.82;6.65;;;7.60;99.90;;;;;;5035542;28;20052;-68
2024/01/09 12:02:37;;;;;;;10.75;6.97;;;7.70;99.90;;;;;;5039476;28;20077;-67
2024/01/09 12:05:04;;;;;;;11.20;6.55;;;7.80;99.90;;;;;;5040993;28;20478;-67
2024/01/09 12:07:33;;;;;;;13.10;6.50;;;7.80;99.90;;;;;;5037430;28;20034;-68
2024/01/09 12:10:04;;;;;;;10.75;6.18;;;7.60;99.90;;;;;;5038474;28;20141;-67
2024/01/09 12:12:29;;;;;;;9.70;6.13;;;7.70;99.90;;;;;;5034151;28;20091;-68
2024/01/09 12:14:59;;;;;;;10.65;5.57;;;7.50;99.90;;;;;;5038518;28;20037;-68
2024/01/09 12:17:33;;;;;;;10.43;5.95;;;7.70;99.90;;;;;;5040358;28;20041;-67
2024/01/09 12:20:00;;;;;;;8.25;5.25;;;7.80;99.90;;;;;;5026464;28;20061;-66
2024/01/09 12:22:26;;;;;;;8.57;5.45;;;8.00;99.90;;;;;;5025969;28;20062;-69
2024/01/09 12:24:54;;;;;;;10.15;5.45;;;7.70;99.90;;;;;;5031990;28;20212;-66
2024/01/09 12:27:21;;;;;;;9.05;5.72;;;7.60;99.90;;;;;;5038201;28;20025;-69
2024/01/09 12:29:47;;;;;;;9.63;5.67;;;7.70;99.90;;;;;;5039026;28;20029;-67
2024/01/09 12:32:14;;;;;;;7.63;5.03;;;8.00;99.90;;;;;;5039777;28;20038;-67
2024/01/09 12:34:40;;;;;;;8.20;5.07;;;8.40;99.90;;;;;;5055509;28;20021;-68